Data for 10/21/2013

Time Sea-Level Adjusted Pressure Absolute Pressure Temperature Relative Humidity Dew Point   
(mb) (inHg) (mb) (inHg) (C) (F) (%) (C) (F)
00:05 1022 30.18 851 25.13 5 41.1 61 -1.8 28.8
00:10 1022 30.18 851 25.13 5 40.9 62 -1.6 29
00:15 1022 30.18 851 25.13 4.7 40.5 64 -1.6 29.2
00:20 1022 30.18 851 25.13 4.6 40.3 63 -1.9 28.7
00:25 1022 30.18 851 25.13 4.5 40.2 64 -1.7 29
00:30 1022 30.18 851 25.13 4.2 39.5 65 -1.8 28.8
00:35 1022 30.18 851 25.13 4 39.2 64 -2.2 28
00:40 1022 30.18 851 25.13 4.3 39.8 64 -2 28.5
00:45 1022 30.18 851 25.13 4.3 39.7 63 -2.1 28.2
00:50 1022 30.18 851 25.13 4.6 40.2 61 -2.3 27.9
00:55 1022 30.18 851 25.13 4.8 40.7 60 -2.3 27.9
01:00 1022 30.18 851 25.13 4.8 40.6 60 -2.3 27.9
01:05 1022 30.18 851 25.13 4.7 40.4 60 -2.4 27.6
01:10 1022 30.18 851 25.13 5 41 58 -2.5 27.5
01:15 1022 30.18 851 25.13 5.1 41.1 58 -2.5 27.5
01:20 1022 30.18 851 25.13 5.1 41.2 58 -2.4 27.7
01:25 1022 30.18 851 25.13 4.8 40.7 60 -2.3 27.9
01:30 1022 30.18 851 25.13 4.5 40.2 61 -2.3 27.8
01:35 1022 30.18 851 25.13 4.2 39.6 64 -1.9 28.6
01:40 1022 30.18 851 25.13 3.5 38.2 68 -1.9 28.5
01:45 1022 30.18 851 25.13 3.1 37.5 69 -2.1 28.1
01:50 1022 30.18 851 25.13 3.1 37.5 68 -2.2 28
01:55 1022 30.18 851 25.13 3.2 37.7 67 -2.4 27.8
02:00 1022 30.18 851 25.13 3.4 38.1 66 -2.3 27.8
02:05 1022 30.18 852 25.16 3.5 38.3 66 -2.3 27.9
02:10 1022 30.18 852 25.16 3.7 38.6 64 -2.5 27.6
02:15 1022 30.18 852 25.16 4 39.1 64 -2.3 27.8
02:20 1022 30.18 852 25.16 4.1 39.3 62 -2.5 27.6
02:25 1022 30.18 852 25.16 4.3 39.8 62 -2.2 28
02:30 1022 30.18 852 25.16 4.1 39.4 64 -2.1 28.3
02:35 1022 30.18 852 25.16 3.9 39 65 -2.1 28.3
02:40 1022 30.18 852 25.16 3.6 38.5 66 -2.1 28.2
02:45 1022 30.18 852 25.16 3.5 38.3 66 -2.3 27.8
02:50 1023 30.21 852 25.16 3.6 38.5 66 -2.2 28.1
02:55 1023 30.21 852 25.16 3.5 38.2 66 -2.3 27.8
03:00 1023 30.21 852 25.16 3.4 38.1 67 -2 28.3
03:05 1023 30.21 852 25.16 3.1 37.6 69 -2.1 28.3
03:10 1023 30.21 852 25.16 2.9 37.2 69 -2.1 28.1
03:15 1022 30.18 852 25.16 3 37.4 69 -2.2 28
03:20 1023 30.21 852 25.16 3 37.4 68 -2.3 27.9
03:25 1023 30.21 852 25.16 3.3 37.9 66 -2.4 27.7
03:30 1023 30.21 852 25.16 3.5 38.3 65 -2.4 27.6
03:35 1023 30.21 852 25.16 3.7 38.6 65 -2.3 27.8
03:40 1023 30.21 852 25.16 3.8 38.8 64 -2.4 27.7
03:45 1023 30.21 852 25.16 3.9 38.9 65 -2.2 28.1
03:50 1023 30.21 852 25.16 3.6 38.5 66 -2.1 28.2
03:55 1023 30.21 852 25.16 3.4 38.1 67 -2.1 28.1
04:00 1023 30.21 852 25.16 3.7 38.7 66 -2.1 28.3
04:05 1023 30.21 852 25.16 4 39.2 65 -1.9 28.6
04:10 1023 30.21 852 25.16 4 39.1 66 -1.8 28.7
04:15 1023 30.21 852 25.16 3.8 38.9 67 -1.8 28.8
04:20 1023 30.21 852 25.16 3.9 39 66 -2 28.5
04:25 1023 30.21 852 25.16 3.8 38.9 67 -1.7 28.9
04:30 1023 30.21 852 25.16 3.7 38.7 67 -1.8 28.8
04:35 1023 30.21 852 25.16 3.7 38.6 68 -1.7 29
04:40 1023 30.21 852 25.16 3.5 38.4 69 -1.7 29
04:45 1023 30.21 852 25.16 3.5 38.3 68 -1.8 28.7
04:50 1023 30.21 852 25.16 3.6 38.5 68 -1.8 28.8
04:55 1023 30.21 852 25.16 4 39.1 64 -2.1 28.2
05:00 1023 30.21 852 25.16 4.4 39.9 63 -2.1 28.2
05:05 1023 30.21 852 25.16 4.5 40.1 63 -2 28.4
05:10 1023 30.21 852 25.16 4.6 40.2 63 -1.8 28.7
05:15 1023 30.21 852 25.16 4.3 39.8 66 -1.5 29.4
05:20 1023 30.21 852 25.16 3.9 39 68 -1.5 29.3
05:25 1023 30.21 852 25.16 3.5 38.4 69 -1.6 29.1
05:30 1023 30.21 852 25.16 3.6 38.4 69 -1.6 29.2
05:35 1023 30.21 852 25.16 3.6 38.4 68 -1.8 28.8
05:40 1023 30.21 852 25.16 3.5 38.3 68 -1.8 28.7
05:45 1023 30.21 852 25.16 3.3 37.9 68 -1.9 28.5
05:50 1023 30.21 852 25.16 3.1 37.6 70 -1.9 28.6
05:55 1023 30.21 852 25.16 2.9 37.2 70 -2.1 28.3
06:00 1023 30.21 852 25.16 2.8 37 71 -2 28.4
06:05 1023 30.21 852 25.16 2.8 37 71 -2 28.3
06:10 1023 30.21 852 25.16 2.8 37.1 69 -2.2 28
06:15 1023 30.21 852 25.16 2.9 37.2 70 -2 28.4
06:20 1023 30.21 852 25.16 2.7 36.9 71 -2.1 28.2
06:25 1023 30.21 852 25.16 2.7 36.8 71 -2.1 28.3
06:30 1023 30.21 852 25.16 2.5 36.6 71 -2.1 28.1
06:35 1023 30.21 852 25.16 2.5 36.4 71 -2.2 28.1
06:40 1023 30.21 852 25.16 2.3 36.2 73 -2 28.4
06:45 1023 30.21 852 25.16 2.3 36.2 72 -2.3 27.9
06:50 1023 30.21 852 25.16 2.5 36.5 71 -2.2 28
06:55 1023 30.21 852 25.16 2.6 36.7 71 -2.2 28.1
07:00 1023 30.21 852 25.16 2.5 36.4 71 -2.3 27.8
07:05 1023 30.21 852 25.16 2.7 36.9 69 -2.4 27.7
07:10 1023 30.21 852 25.16 3 37.4 68 -2.3 27.8
07:15 1023 30.21 852 25.16 3 37.4 68 -2.3 27.8
07:20 1023 30.21 852 25.16 2.8 37.1 69 -2.2 28
07:25 1023 30.21 852 25.16 2.7 36.9 70 -2.3 27.8
07:30 1023 30.21 852 25.16 3 37.3 68 -2.5 27.6
07:35 1023 30.21 852 25.16 3.5 38.3 66 -2.2 28
07:40 1023 30.21 852 25.16 3.5 38.3 66 -2.2 28
07:45 1023 30.21 852 25.16 3.4 38.1 66 -2.4 27.6
07:50 1023 30.21 852 25.16 3.9 39 65 -2.2 28.1
07:55 1023 30.21 852 25.16 4.2 39.6 64 -1.9 28.5
08:00 1023 30.21 852 25.16 3.9 39.1 67 -1.7 29
08:05 1023 30.21 852 25.16 4.1 39.4 66 -1.7 29
08:10 1023 30.21 852 25.16 4.5 40 65 -1.5 29.3
08:15 1023 30.21 852 25.16 4.9 40.8 63 -1.5 29.3
08:20 1023 30.21 852 25.16 5.3 41.5 63 -1.3 29.7
08:25 1023 30.21 852 25.16 6 42.8 59 -1.5 29.4
08:30 1023 30.21 853 25.19 6.5 43.7 58 -1.1 30
08:35 1023 30.21 853 25.19 6.2 43.2 58 -1.4 29.5
08:40 1023 30.21 853 25.19 6.8 44.3 55 -1.5 29.4
08:45 1023 30.21 853 25.19 6.9 44.4 57 -1.1 30.1
08:50 1023 30.21 853 25.19 6.6 44 57 -1.3 29.7
08:55 1024 30.24 853 25.19 6.8 44.2 58 -0.9 30.3
09:00 1024 30.24 853 25.19 7.1 44.9 56 -1.1 30.1
09:05 1024 30.24 853 25.19 7.8 46.1 55 -0.7 30.8
09:10 1024 30.24 853 25.19 8 46.4 54 -0.6 30.9
09:15 1024 30.24 853 25.19 7.9 46.3 53 -1.1 30.1
09:20 1024 30.24 853 25.19 7.9 46.2 51 -1.7 29
09:25 1024 30.24 853 25.19 7.8 46 53 -1.1 30
09:30 1023 30.21 853 25.19 7.6 45.7 52 -1.6 29.1
09:35 1023 30.21 852 25.16 7.5 45.5 51 -1.8 28.7
09:40 1023 30.21 852 25.16 7.6 45.7 52 -1.7 29
09:45 1023 30.21 853 25.19 8.2 46.7 50 -1.5 29.3
09:50 1023 30.21 853 25.19 8.6 47.5 49 -1.6 29.2
09:55 1023 30.21 853 25.19 8.8 47.9 50 -1 30.2
10:00 1024 30.24 853 25.19 8.8 47.9 52 -0.5 31
10:05 1024 30.24 853 25.19 9.2 48.5 49 -0.8 30.5
10:10 1024 30.24 853 25.19 9.4 49 53 0.5 32.9
10:15 1024 30.24 853 25.19 8.8 47.8 55 0.4 32.7
10:20 1024 30.24 853 25.19 8.9 48 56 0.5 33
10:25 1024 30.24 853 25.19 8.9 48.1 51 -0.6 31
10:30 1024 30.24 853 25.19 9 48.1 52 -0.3 31.5
10:35 1024 30.24 853 25.19 8.7 47.6 52 -0.6 30.9
10:40 1024 30.24 853 25.19 9.3 48.8 49 -0.9 30.4
10:45 1024 30.24 853 25.19 9.4 48.8 50 -0.5 31.2
10:50 1024 30.24 853 25.19 9.3 48.8 49 -0.8 30.6
10:55 1024 30.24 853 25.19 10.3 50.5 45 -1.2 29.9
11:00 1024 30.24 853 25.19 10.4 50.8 48 -0.1 31.9
11:05 1024 30.24 853 25.19 10 50.1 46 -1.1 30
11:10 1024 30.24 853 25.19 9.8 49.6 47 -0.9 30.4
11:15 1024 30.24 853 25.19 10.6 51.1 45 -0.9 30.4
11:20 1024 30.24 853 25.19 11.7 53 39 -1.7 29
11:25 1024 30.24 853 25.19 12 53.7 37 -2.1 28.1
11:30 1024 30.24 853 25.19 12.6 54.8 35 -2.4 27.6
11:35 1024 30.24 853 25.19 12.6 54.6 38 -1.4 29.4
11:40 1024 30.24 853 25.19 11.5 52.7 39 -2 28.4
11:45 1024 30.24 853 25.19 11.4 52.6 36 -3 26.7
11:50 1023 30.21 853 25.19 12.1 53.9 36 -2.6 27.4
11:55 1023 30.21 853 25.19 12.8 55 34 -2.7 27.2
12:00 1023 30.21 853 25.19 13.2 55.8 32 -3.1 26.4
12:05 1023 30.21 852 25.16 13.5 56.3 32 -2.9 26.7
12:10 1023 30.21 852 25.16 13.2 55.7 33 -2.8 26.9
12:15 1023 30.21 852 25.16 13.1 55.5 33 -2.8 27
12:20 1023 30.21 852 25.16 12.9 55.3 32 -3.3 26.1
12:25 1023 30.21 852 25.16 13.5 56.2 32 -2.9 26.8
12:30 1023 30.21 852 25.16 14.1 57.3 31 -2.5 27.4
12:35 1023 30.21 852 25.16 13.4 56.1 32 -2.9 26.8
12:40 1023 30.21 852 25.16 13.4 56.1 33 -2.4 27.7
12:45 1023 30.21 852 25.16 12.6 54.7 35 -2.4 27.6
12:50 1023 30.21 852 25.16 13.4 56 31 -3.3 26.1
12:55 1023 30.21 852 25.16 14 57.2 31 -2.6 27.3
13:00 1023 30.21 852 25.16 13.3 55.9 32 -3 26.7
13:05 1023 30.21 852 25.16 13.3 55.9 33 -2.6 27.3
13:10 1023 30.21 852 25.16 13.6 56.5 32 -2.9 26.8
13:15 1023 30.21 852 25.16 14.2 57.5 30 -2.9 26.8
13:20 1023 30.21 852 25.16 14.5 58.2 30 -2.7 27.2
13:25 1023 30.21 852 25.16 14.6 58.3 31 -2.5 27.6
13:30 1023 30.21 852 25.16 14.7 58.5 30 -2.6 27.3
13:35 1023 30.21 852 25.16 14.4 58 31 -2.6 27.3
13:40 1023 30.21 852 25.16 14.5 58.1 30 -2.7 27.1
13:45 1023 30.21 852 25.16 14.8 58.6 30 -2.5 27.4
13:50 1023 30.21 852 25.16 14.1 57.3 32 -2.1 28.1
13:55 1023 30.21 852 25.16 13.7 56.6 32 -2.5 27.5
14:00 1023 30.21 852 25.16 14.3 57.8 30 -2.7 27.1
14:05 1022 30.18 852 25.16 14.6 58.2 30 -2.6 27.3
14:10 1022 30.18 852 25.16 14 57.2 32 -2.3 27.9
14:15 1022 30.18 852 25.16 13.1 55.7 34 -2.4 27.7
14:20 1022 30.18 852 25.16 13.8 56.9 31 -2.7 27.1
14:25 1022 30.18 852 25.16 13.7 56.7 32 -2.5 27.5
14:30 1022 30.18 852 25.16 13.2 55.8 33 -2.6 27.3
14:35 1022 30.18 852 25.16 14.2 57.5 32 -2.4 27.7
14:40 1022 30.18 852 25.16 14.7 58.5 29 -2.9 26.8
14:45 1022 30.18 852 25.16 15.3 59.6 29 -2.4 27.6
14:50 1022 30.18 852 25.16 15 59 30 -2.6 27.4
14:55 1022 30.18 852 25.16 15.3 59.5 30 -2.3 27.8
15:00 1022 30.18 852 25.16 14.5 58.2 32 -1.7 29
15:05 1022 30.18 851 25.13 13.2 55.8 33 -2.5 27.6
15:10 1022 30.18 851 25.13 13.8 56.9 31 -2.8 26.9
15:15 1022 30.18 851 25.13 14.6 58.3 30 -2.7 27.1
15:20 1022 30.18 851 25.13 15.1 59.2 29 -2.5 27.5
15:25 1022 30.18 851 25.13 15.4 59.8 29 -2.3 27.8
15:30 1022 30.18 851 25.13 15.7 60.3 29 -2.2 28.1
15:35 1022 30.18 851 25.13 15.4 59.7 30 -2 28.5
15:40 1022 30.18 851 25.13 15.2 59.4 30 -2.3 27.8
15:45 1022 30.18 851 25.13 15.4 59.7 30 -2.1 28.3
15:50 1022 30.18 851 25.13 15.4 59.7 29 -2.4 27.7
15:55 1022 30.18 851 25.13 15.4 59.6 30 -2 28.4
16:00 1022 30.18 851 25.13 15.4 59.6 30 -1.8 28.7
16:05 1022 30.18 851 25.13 15.1 59.2 32 -1.5 29.4
16:10 1022 30.18 851 25.13 14.9 58.8 32 -1.6 29.1
16:15 1022 30.18 851 25.13 14.6 58.3 32 -2 28.5
16:20 1022 30.18 851 25.13 14 57.2 33 -2 28.4
16:25 1022 30.18 851 25.13 14.1 57.3 32 -2.4 27.6
16:30 1022 30.18 851 25.13 14.5 58.2 31 -2.2 28
16:35 1022 30.18 851 25.13 15.1 59.2 30 -2.1 28.1
16:40 1022 30.18 851 25.13 14.5 58.1 33 -1.6 29.2
16:45 1022 30.18 851 25.13 13.7 56.7 35 -1.5 29.3
16:50 1022 30.18 851 25.13 13.3 55.9 37 -1 30.2
16:55 1022 30.18 851 25.13 13.2 55.8 36 -1.6 29
17:00 1022 30.18 851 25.13 13 55.5 36 -1.7 29
17:05 1022 30.18 851 25.13 12.7 54.8 37 -1.6 29.1
17:10 1022 30.18 851 25.13 12.4 54.4 37 -1.7 29
17:15 1022 30.18 851 25.13 12.4 54.3 37 -1.7 28.9
17:20 1022 30.18 851 25.13 12.3 54.1 38 -1.7 29
17:25 1022 30.18 851 25.13 12 53.6 39 -1.6 29.1
17:30 1022 30.18 851 25.13 11.9 53.4 39 -1.8 28.8
17:35 1022 30.18 851 25.13 11.9 53.3 38 -1.8 28.8
17:40 1022 30.18 851 25.13 11.8 53.2 40 -1.3 29.7
17:45 1022 30.18 851 25.13 11.6 52.8 44 -0.2 31.6
17:50 1022 30.18 851 25.13 10.8 51.4 48 0.1 32.2
17:55 1022 30.18 851 25.13 10 50 50 0.1 32.2
18:00 1022 30.18 851 25.13 9.6 49.3 50 -0.2 31.7
18:05 1022 30.18 851 25.13 9.2 48.6 52 -0.1 31.8
18:10 1022 30.18 851 25.13 8.9 47.9 52 -0.4 31.3
18:15 1022 30.18 851 25.13 8.7 47.7 53 -0.2 31.6
18:20 1022 30.18 851 25.13 8.5 47.4 53 -0.6 31
18:25 1022 30.18 851 25.13 8.4 47.1 53 -0.5 31.2
18:30 1022 30.18 851 25.13 8.3 46.9 54 -0.5 31.1
18:35 1022 30.18 851 25.13 8.2 46.7 54 -0.6 30.9
18:40 1022 30.18 851 25.13 8.1 46.6 54 -0.6 30.9
18:45 1022 30.18 851 25.13 8 46.3 55 -0.4 31.3
18:50 1022 30.18 851 25.13 7.4 45.3 59 -0.2 31.7
18:55 1022 30.18 851 25.13 6.9 44.4 60 -0.4 31.3
19:00 1022 30.18 851 25.13 6.8 44.2 60 -0.6 31
19:05 1022 30.18 851 25.13 6.7 44.1 59 -0.6 30.9
19:10 1022 30.18 851 25.13 6.7 44 60 -0.6 30.9
19:15 1022 30.18 851 25.13 6.6 44 59 -0.8 30.6
19:20 1022 30.18 851 25.13 6.7 44.1 59 -0.7 30.7
19:25 1022 30.18 852 25.16 6.6 43.9 59 -0.9 30.4
19:30 1022 30.18 852 25.16 6.9 44.5 58 -0.9 30.5
19:35 1022 30.18 852 25.16 6.9 44.4 56 -1.2 29.8
19:40 1022 30.18 852 25.16 7.4 45.3 54 -1.3 29.6
19:45 1022 30.18 852 25.16 7.9 46.2 53 -1 30.1
19:50 1022 30.18 852 25.16 7.8 46.1 53 -1 30.2
19:55 1022 30.18 852 25.16 7.6 45.7 54 -1 30.2
20:00 1022 30.18 852 25.16 7.3 45.2 56 -0.7 30.7
20:05 1022 30.18 852 25.16 6.6 43.9 59 -0.7 30.7
20:10 1022 30.18 852 25.16 6.2 43.2 60 -1 30.2
20:15 1022 30.18 852 25.16 6.1 43 59 -1.2 29.9
20:20 1022 30.18 852 25.16 6.2 43.1 59 -1.3 29.7
20:25 1023 30.21 852 25.16 6.1 43 59 -1.2 29.9
20:30 1023 30.21 852 25.16 6 42.8 59 -1.4 29.5
20:35 1023 30.21 852 25.16 6.2 43.2 58 -1.3 29.6
20:40 1023 30.21 852 25.16 6.4 43.6 58 -1.3 29.7
20:45 1023 30.21 852 25.16 6.4 43.5 58 -1.2 29.8
20:50 1023 30.21 852 25.16 6.3 43.4 59 -1.1 30
20:55 1023 30.21 852 25.16 6.4 43.5 57 -1.4 29.4
21:00 1023 30.21 852 25.16 6.9 44.4 55 -1.5 29.3
21:05 1023 30.21 852 25.16 7.2 44.9 54 -1.4 29.5
21:10 1023 30.21 852 25.16 7.1 44.7 55 -1.4 29.6
21:15 1023 30.21 852 25.16 7 44.7 55 -1.4 29.5
21:20 1023 30.21 852 25.16 7 44.6 56 -1.2 29.8
21:25 1023 30.21 852 25.16 6.9 44.4 55 -1.5 29.4
21:30 1023 30.21 852 25.16 6.8 44.2 56 -1.5 29.4
21:35 1023 30.21 852 25.16 6.7 44.1 55 -1.6 29.1
21:40 1023 30.21 852 25.16 6.7 44.1 56 -1.5 29.2
21:45 1023 30.21 852 25.16 6.7 44.1 56 -1.4 29.5
21:50 1023 30.21 852 25.16 6.8 44.2 55 -1.6 29.1
21:55 1023 30.21 852 25.16 7 44.5 55 -1.6 29.2
22:00 1023 30.21 852 25.16 6.9 44.4 56 -1.3 29.6
22:05 1023 30.21 852 25.16 6.5 43.8 56 -1.6 29.2
22:10 1023 30.21 852 25.16 6.4 43.6 56 -1.6 29.2
22:15 1023 30.21 852 25.16 6.3 43.4 57 -1.4 29.4
22:20 1023 30.21 852 25.16 6.3 43.3 57 -1.7 29
22:25 1023 30.21 852 25.16 6.4 43.5 55 -1.9 28.6
22:30 1023 30.21 852 25.16 6.6 43.9 55 -1.8 28.7
22:35 1023 30.21 852 25.16 6.5 43.7 56 -1.6 29.2
22:40 1023 30.21 853 25.19 6.3 43.3 57 -1.6 29.2
22:45 1023 30.21 853 25.19 6 42.7 59 -1.4 29.5
22:50 1023 30.21 853 25.19 5.6 42 61 -1.4 29.4
22:55 1023 30.21 853 25.19 5.2 41.4 62 -1.5 29.3
23:00 1023 30.21 853 25.19 5.2 41.4 62 -1.5 29.3
23:05 1023 30.21 853 25.19 5.1 41.1 62 -1.5 29.3
23:10 1023 30.21 853 25.19 4.9 40.9 63 -1.5 29.3
23:15 1023 30.21 853 25.19 4.6 40.3 66 -1.2 29.9
23:20 1023 30.21 853 25.19 4 39.3 67 -1.5 29.3
23:25 1023 30.21 853 25.19 4.5 40.1 65 -1.6 29.1
23:30 1023 30.21 853 25.19 4.8 40.6 63 -1.7 28.9
23:35 1023 30.21 853 25.19 5.4 41.7 60 -1.7 28.9
23:40 1024 30.24 853 25.19 5.7 42.3 59 -1.6 29.2
23:45 1024 30.24 853 25.19 5.6 42.2 61 -1.4 29.6
23:50 1024 30.24 853 25.19 5.4 41.6 61 -1.5 29.3
23:55 1024 30.24 853 25.19 5.4 41.7 60 -1.6 29.1
24:00 1024 30.24 853 25.19 5.4 41.8 61 -1.4 29.4